Terminal Aerodrome Forecast
Issued by NWS Knoxville/Tri Cities, TN

Home | Current Version | Previous Version | Text Only | Print | Product List | Glossary On
Versions: 1 2 3 4 5 6 7 8 9 10 11 12 13 14 15 16 17 18 19 20 21 22 23 24 25 26 27 28
000
FTUS44 KMRX 241123
TAFTRI
TAF
KTRI 241123Z 2412/2512 08006KT P6SM VCSH BKN050
     FM241800 09008KT P6SM VCTS OVC050CB
     FM242100 18007KT 6SM BR VCTS OVC040CB
     FM250100 VRB04KT P6SM VCSH BKN020=

USA.gov is the U.S. government's official web portal to all federal, state and local government web resources and services.